Ettrick, Wisconsin
Current Conditions -  °F | °C
As of 9:53 PM on Sunday 23 Nov 2014 (Local Time) from KLSE Reporting Station
Light Rain Light Rain  
Wind Chill:   Ceiling: 700
Heat Index:   Visibility: 3mi
Dew Point:   Wind: 14mph
Humidity: 97%   Direction: 330°NNW
Pressure: 29.22"   Gusts: NA
Location:  44.17°N, 91.27°W
Report Text: KLSE 240353Z AUTO 33012KT 3SM -RA BR BKN007 OVC011 06/06 A2922 RMK AO2 RAB05 SLP898 P0006 T00610056
Loading
Personal Weather Stations






























Interactive Weather Map New forecast layout! Learn more

10-Day Weather Forecast

Advertisements
Track Severe Weather on mobile